»·PEaware :: N3891R KAVX-KSAN

N3891R :: KAVX-KSAN

FLIGHT INFORMATION

Flight Status: Arrived
Operator: Privately registered:
United States
More flights under this callsign
Pilot: Markus B. (22479)
Aircraft: BEECH AIRCRAFT BARON
(BE58)
More flights by this aircraft type
Origin: KAVX Catalina
United States
Destination: KSAN San Diego Intl-Lindbergh
United States
More flights between these airports :: More routes between these airports
Route: +SXC V208 OCN V23 MZB
File this flight plan on PilotEdge
Remarks: I-8
Altitude:
(Current/Filed)
4,000ft
Speed:
(Current/Filed)
160kts
Departed: 26-Jan-19 04:35 PM
Arrived: 26-Jan-19 05:49 PM
Distance/Time
Traveled:
73nm/1:14
Distance/Time
To Go:
Arrived

Flight Plot

Page will automatically refresh every two minutes.


Map Options




Map Legend


Flown Route
Filed Route
Departure Airport
Arrival Airport
Navaid (VOR, NDB)
Fix

Horizontal Profiles

Position Reports

Time Latitude Longitude Heading Altitude Ground
Speed
26-Jan-19 16:16 33.403293 -118.415954 45 1606ft 0kts
26-Jan-19 16:17 33.403293 -118.415954 45 1606ft 0kts
26-Jan-19 16:18 33.403293 -118.415954 45 1606ft 0kts
26-Jan-19 16:19 33.403293 -118.415954 45 1606ft 0kts
26-Jan-19 16:20 33.403293 -118.415954 45 1606ft 0kts
26-Jan-19 16:21 33.403293 -118.415954 45 1606ft 0kts
26-Jan-19 16:22 33.403293 -118.415954 45 1606ft 0kts
26-Jan-19 16:23 33.403293 -118.415954 45 1606ft 0kts
26-Jan-19 16:24 33.403293 -118.415954 44 1606ft 0kts
26-Jan-19 16:25 33.403293 -118.415954 45 1606ft 0kts
26-Jan-19 16:26 33.403293 -118.415954 45 1606ft 0kts
26-Jan-19 16:27 33.403293 -118.415954 45 1606ft 0kts
26-Jan-19 16:28 33.403293 -118.415954 45 1606ft 0kts
26-Jan-19 16:29 33.404057 -118.414988 4 1606ft 11kts
26-Jan-19 16:30 33.406392 -118.412704 53 1606ft 18kts
26-Jan-19 16:31 33.407169 -118.411389 29 1606ft 0kts
26-Jan-19 16:33 33.407169 -118.411389 29 1606ft 0kts
26-Jan-19 16:34 33.407390 -118.411705 248 1606ft 9kts
26-Jan-19 16:35 33.393676 -118.436715 247 2015ft 128kts
26-Jan-19 16:36 33.366501 -118.440489 117 2955ft 127kts
26-Jan-19 16:37 33.370953 -118.399197 90 3831ft 131kts
26-Jan-19 16:39 33.403293 -118.415954 45 1606ft 0kts
26-Jan-19 16:40 33.403293 -118.415954 45 1606ft 0kts
26-Jan-19 16:41 33.403293 -118.415954 45 1606ft 0kts
26-Jan-19 16:42 33.403293 -118.415954 45 1606ft 0kts
26-Jan-19 16:43 33.403293 -118.415954 45 1606ft 0kts
26-Jan-19 16:44 33.403293 -118.415954 45 1606ft 0kts
26-Jan-19 16:45 33.403293 -118.415954 45 1606ft 0kts
26-Jan-19 16:46 33.403293 -118.415954 45 1606ft 0kts
26-Jan-19 16:47 33.403293 -118.415954 45 1606ft 0kts
26-Jan-19 16:48 33.403293 -118.415954 45 1606ft 0kts
26-Jan-19 16:49 33.403293 -118.415954 44 1606ft 0kts
26-Jan-19 16:50 33.404417 -118.414997 348 1606ft 11kts
26-Jan-19 16:50 33.406047 -118.413297 59 1606ft 9kts
26-Jan-19 16:51 33.407087 -118.411517 54 1606ft 0kts
26-Jan-19 16:53 33.407090 -118.411513 54 1606ft 0kts
26-Jan-19 16:54 33.407090 -118.411513 54 1606ft 0kts
26-Jan-19 16:55 33.407090 -118.411513 54 1606ft 0kts
26-Jan-19 16:55 33.407090 -118.411513 54 1606ft 0kts
26-Jan-19 16:56 33.407350 -118.411770 233 1606ft 10kts
26-Jan-19 16:57 33.392655 -118.437417 238 1918ft 134kts
26-Jan-19 16:58 33.364503 -118.453722 129 2905ft 139kts
26-Jan-19 16:59 33.375025 -118.411628 109 3804ft 157kts
26-Jan-19 17:00 33.365269 -118.357376 89 3871ft 181kts
26-Jan-19 17:01 33.359092 -118.297529 99 4013ft 184kts
26-Jan-19 17:02 33.351265 -118.237996 99 4384ft 172kts
26-Jan-19 17:03 33.343876 -118.182061 99 4935ft 169kts
26-Jan-19 17:04 33.336170 -118.124010 99 5009ft 182kts
26-Jan-19 17:05 33.328312 -118.064788 99 5007ft 173kts
26-Jan-19 17:06 33.320498 -118.006359 99 5008ft 181kts
26-Jan-19 17:07 33.312488 -117.946396 99 5008ft 182kts
26-Jan-19 17:08 33.304568 -117.887311 99 5010ft 183kts
26-Jan-19 17:09 33.296592 -117.828420 99 5007ft 176kts
26-Jan-19 17:10 33.288760 -117.770846 99 5008ft 174kts
26-Jan-19 17:11 33.280949 -117.713311 99 5008ft 174kts
26-Jan-19 17:12 33.273152 -117.656010 99 5008ft 174kts
26-Jan-19 17:13 33.265316 -117.598637 99 5008ft 174kts
26-Jan-19 17:14 33.257465 -117.541355 99 5008ft 174kts
26-Jan-19 17:15 33.249558 -117.483925 99 5008ft 174kts
26-Jan-19 17:16 33.240026 -117.427397 128 5007ft 174kts
26-Jan-19 17:17 33.197250 -117.400688 158 5008ft 174kts
26-Jan-19 17:18 33.151541 -117.380325 160 5008ft 174kts
26-Jan-19 17:19 33.105761 -117.361048 160 5008ft 174kts
26-Jan-19 17:20 33.058376 -117.341153 161 4779ft 178kts
26-Jan-19 17:21 33.012110 -117.321737 161 4781ft 175kts
26-Jan-19 17:22 32.966929 -117.302794 161 4781ft 174kts
26-Jan-19 17:23 32.920902 -117.283517 161 4781ft 174kts
26-Jan-19 17:24 32.874890 -117.264268 161 4781ft 174kts
26-Jan-19 17:25 32.828703 -117.246221 178 4782ft 174kts
26-Jan-19 17:26 32.780124 -117.248138 182 4781ft 174kts
26-Jan-19 17:27 32.736989 -117.235439 108 4778ft 173kts
26-Jan-19 17:28 32.726937 -117.179605 102 4773ft 159kts
26-Jan-19 17:29 32.718436 -117.130572 101 4777ft 144kts
26-Jan-19 17:30 32.710809 -117.086512 101 4780ft 129kts
26-Jan-19 17:31 32.709723 -117.044545 91 4780ft 121kts
26-Jan-19 17:32 32.709340 -117.004051 91 4783ft 126kts
26-Jan-19 17:33 32.708910 -116.960715 91 4782ft 132kts
26-Jan-19 17:34 32.708488 -116.916687 91 4781ft 133kts
26-Jan-19 17:35 32.708071 -116.872483 91 4781ft 133kts
26-Jan-19 17:36 32.704838 -116.828967 117 4784ft 131kts
26-Jan-19 17:37 32.694502 -116.787432 115 4778ft 131kts
26-Jan-19 17:38 32.670097 -116.799143 250 4784ft 130kts
26-Jan-19 17:39 32.658127 -116.840668 251 4406ft 140kts
26-Jan-19 17:40 32.646252 -116.884834 258 3954ft 119kts
26-Jan-19 17:41 32.650050 -116.919254 296 4138ft 107kts
26-Jan-19 17:42 32.663775 -116.951774 296 4169ft 112kts
26-Jan-19 17:43 32.681446 -116.983679 296 4188ft 127kts
26-Jan-19 17:44 32.694535 -117.028925 286 3355ft 149kts
26-Jan-19 17:45 32.705063 -117.072085 286 2882ft 132kts
26-Jan-19 17:46 32.715510 -117.115092 286 1960ft 136kts
26-Jan-19 17:47 32.726143 -117.160216 286 641ft 144kts
26-Jan-19 17:48 32.733629 -117.190119 283 21ft 19kts
26-Jan-19 17:49 32.735290 -117.197393 263 21ft 20kts
26-Jan-19 17:50 32.733797 -117.199729 193 21ft 0kts

Navigation Log

Ident Type
Flight plan parsing failed, navigation log unavailable